DBBB/COO METAR and TAF weather

Enter ICAO airport designator
Station Type Date Time Source
DBBB METAR 2022/08/13 12:00 UTC NOAA

DBBB 131200Z 24015KT 9999 FEW011 28/23 Q1013 NOSIG


Station Type Date Time Source
DBBB Decoded METAR 2022/08/13 12:00 UTC NOAA

Cotonou, Benin (DBBB) 06-21N 002-23E 9M
Aug 13, 2022 - 08:00 AM EDT / 2022.08.13 1200 UTC
Wind: from the WSW (240 degrees) at 17 MPH (15 KT):0
Visibility: greater than 7 mile(s):0
Sky conditions: mostly clear
Temperature: 82 F (28 C)
Dew Point: 73 F (23 C)
Relative Humidity: 74%
Pressure (altimeter): 29.91 in. Hg (1013 hPa)
ob: DBBB 131200Z 24015KT 9999 FEW011 28/23 Q1013 NOSIG
cycle: 12

Station Type Date Time Source
DBBB TAF 2022/08/13 12:12 UTC NOAA

TAF TAF DBBB 131100Z 1312/1418 22015KT 9999 SCT012 PROB30
TEMPO 1404/1410 4000 RA BKN010

Example: see airport list